sensor_id;sensor_type;location;lat;lon;timestamp;temperature;humidity
26964;DHT22;14521;48.148;-1.656;2023-04-08T00:01:06;19.40;79.30
26964;DHT22;14521;48.148;-1.656;2023-04-08T00:04:28;19.40;79.10
26964;DHT22;14521;48.148;-1.656;2023-04-08T00:07:50;19.40;79.10
26964;DHT22;14521;48.148;-1.656;2023-04-08T00:11:13;19.40;79.20
26964;DHT22;14521;48.148;-1.656;2023-04-08T00:14:35;19.40;79.10
26964;DHT22;14521;48.148;-1.656;2023-04-08T00:17:59;19.40;79.20
26964;DHT22;14521;48.148;-1.656;2023-04-08T00:21:22;19.40;79.10
26964;DHT22;14521;48.148;-1.656;2023-04-08T00:24:44;19.40;79.10
26964;DHT22;14521;48.148;-1.656;2023-04-08T00:28:07;19.30;78.90
26964;DHT22;14521;48.148;-1.656;2023-04-08T00:31:30;19.30;79.00
26964;DHT22;14521;48.148;-1.656;2023-04-08T00:34:53;19.30;78.80
26964;DHT22;14521;48.148;-1.656;2023-04-08T00:38:15;19.30;78.80
26964;DHT22;14521;48.148;-1.656;2023-04-08T00:41:37;19.30;78.80
26964;DHT22;14521;48.148;-1.656;2023-04-08T00:44:59;19.30;78.80
26964;DHT22;14521;48.148;-1.656;2023-04-08T00:48:22;19.30;78.70
26964;DHT22;14521;48.148;-1.656;2023-04-08T00:51:44;19.30;78.70
26964;DHT22;14521;48.148;-1.656;2023-04-08T00:55:07;19.30;78.60
26964;DHT22;14521;48.148;-1.656;2023-04-08T00:58:29;19.30;78.60
26964;DHT22;14521;48.148;-1.656;2023-04-08T01:06:09;19.30;78.60
26964;DHT22;14521;48.148;-1.656;2023-04-08T01:09:37;19.30;78.50
26964;DHT22;14521;48.148;-1.656;2023-04-08T01:13:06;19.30;78.50
26964;DHT22;14521;48.148;-1.656;2023-04-08T01:16:29;19.20;78.40
26964;DHT22;14521;48.148;-1.656;2023-04-08T01:19:53;19.20;78.40
26964;DHT22;14521;48.148;-1.656;2023-04-08T01:23:32;19.20;78.40
26964;DHT22;14521;48.148;-1.656;2023-04-08T01:26:58;19.20;78.40
26964;DHT22;14521;48.148;-1.656;2023-04-08T01:30:24;19.20;78.30
26964;DHT22;14521;48.148;-1.656;2023-04-08T01:33:48;19.20;78.30
26964;DHT22;14521;48.148;-1.656;2023-04-08T01:37:12;19.20;78.30
26964;DHT22;14521;48.148;-1.656;2023-04-08T01:40:35;19.20;78.30
26964;DHT22;14521;48.148;-1.656;2023-04-08T01:43:59;19.20;78.30
26964;DHT22;14521;48.148;-1.656;2023-04-08T01:47:24;19.20;78.20
26964;DHT22;14521;48.148;-1.656;2023-04-08T01:50:48;19.20;78.20
26964;DHT22;14521;48.148;-1.656;2023-04-08T01:54:12;19.20;78.10
26964;DHT22;14521;48.148;-1.656;2023-04-08T01:57:37;19.20;78.10
26964;DHT22;14521;48.148;-1.656;2023-04-08T02:01:00;19.10;78.10
26964;DHT22;14521;48.148;-1.656;2023-04-08T02:04:22;19.10;78.00
26964;DHT22;14521;48.148;-1.656;2023-04-08T02:07:46;19.10;78.00
26964;DHT22;14521;48.148;-1.656;2023-04-08T02:11:09;19.10;78.00
26964;DHT22;14521;48.148;-1.656;2023-04-08T02:14:31;19.10;78.00
26964;DHT22;14521;48.148;-1.656;2023-04-08T02:17:54;19.10;79.60
26964;DHT22;14521;48.148;-1.656;2023-04-08T02:21:17;19.10;78.40
26964;DHT22;14521;48.148;-1.656;2023-04-08T02:24:44;19.10;78.40
26964;DHT22;14521;48.148;-1.656;2023-04-08T02:28:09;19.10;78.30
26964;DHT22;14521;48.148;-1.656;2023-04-08T02:31:33;19.10;78.30
26964;DHT22;14521;48.148;-1.656;2023-04-08T02:34:57;19.10;78.20
26964;DHT22;14521;48.148;-1.656;2023-04-08T02:38:21;19.10;78.00
26964;DHT22;14521;48.148;-1.656;2023-04-08T02:41:45;19.10;78.10
26964;DHT22;14521;48.148;-1.656;2023-04-08T02:45:07;19.10;78.00
26964;DHT22;14521;48.148;-1.656;2023-04-08T02:48:30;19.10;77.90
26964;DHT22;14521;48.148;-1.656;2023-04-08T02:51:52;19.10;77.90
26964;DHT22;14521;48.148;-1.656;2023-04-08T02:55:15;19.00;77.90
26964;DHT22;14521;48.148;-1.656;2023-04-08T02:58:37;19.00;77.90
26964;DHT22;14521;48.148;-1.656;2023-04-08T03:01:59;19.00;77.90
26964;DHT22;14521;48.148;-1.656;2023-04-08T03:05:22;19.00;77.80
26964;DHT22;14521;48.148;-1.656;2023-04-08T03:08:44;19.00;77.80
26964;DHT22;14521;48.148;-1.656;2023-04-08T03:12:06;19.00;77.70
26964;DHT22;14521;48.148;-1.656;2023-04-08T03:15:29;19.00;77.70
26964;DHT22;14521;48.148;-1.656;2023-04-08T03:18:51;19.00;77.60
26964;DHT22;14521;48.148;-1.656;2023-04-08T03:22:13;19.00;77.60
26964;DHT22;14521;48.148;-1.656;2023-04-08T03:25:36;19.00;77.60
26964;DHT22;14521;48.148;-1.656;2023-04-08T03:28:58;19.00;77.60
26964;DHT22;14521;48.148;-1.656;2023-04-08T03:32:20;19.00;77.60
26964;DHT22;14521;48.148;-1.656;2023-04-08T03:35:43;19.00;77.60
26964;DHT22;14521;48.148;-1.656;2023-04-08T03:39:05;19.00;77.60
26964;DHT22;14521;48.148;-1.656;2023-04-08T03:42:27;19.00;77.50
26964;DHT22;14521;48.148;-1.656;2023-04-08T03:45:49;19.00;77.50
26964;DHT22;14521;48.148;-1.656;2023-04-08T03:49:12;19.00;77.60
26964;DHT22;14521;48.148;-1.656;2023-04-08T03:52:34;18.90;77.40
26964;DHT22;14521;48.148;-1.656;2023-04-08T03:55:56;19.00;77.40
26964;DHT22;14521;48.148;-1.656;2023-04-08T03:59:18;19.00;77.40
26964;DHT22;14521;48.148;-1.656;2023-04-08T04:02:41;18.90;77.40
26964;DHT22;14521;48.148;-1.656;2023-04-08T04:06:03;18.90;77.40
26964;DHT22;14521;48.148;-1.656;2023-04-08T04:09:26;18.90;77.40
26964;DHT22;14521;48.148;-1.656;2023-04-08T04:12:49;18.90;77.40
26964;DHT22;14521;48.148;-1.656;2023-04-08T04:16:11;18.90;77.30
26964;DHT22;14521;48.148;-1.656;2023-04-08T04:19:33;18.90;77.10
26964;DHT22;14521;48.148;-1.656;2023-04-08T04:22:56;19.00;77.10
26964;DHT22;14521;48.148;-1.656;2023-04-08T04:26:18;19.00;76.90
26964;DHT22;14521;48.148;-1.656;2023-04-08T04:29:40;19.10;77.80
26964;DHT22;14521;48.148;-1.656;2023-04-08T04:33:03;19.10;77.00
26964;DHT22;14521;48.148;-1.656;2023-04-08T04:36:25;19.20;77.00
26964;DHT22;14521;48.148;-1.656;2023-04-08T04:39:48;19.10;77.00
26964;DHT22;14521;48.148;-1.656;2023-04-08T04:43:10;19.20;77.00
26964;DHT22;14521;48.148;-1.656;2023-04-08T04:46:32;19.30;77.00
26964;DHT22;14521;48.148;-1.656;2023-04-08T04:49:55;19.30;77.00
26964;DHT22;14521;48.148;-1.656;2023-04-08T04:53:17;19.30;77.00
26964;DHT22;14521;48.148;-1.656;2023-04-08T04:56:39;19.30;76.80
26964;DHT22;14521;48.148;-1.656;2023-04-08T05:00:02;19.30;76.80
26964;DHT22;14521;48.148;-1.656;2023-04-08T05:03:26;19.40;76.90
26964;DHT22;14521;48.148;-1.656;2023-04-08T05:06:49;19.40;77.00
26964;DHT22;14521;48.148;-1.656;2023-04-08T05:10:11;19.40;76.80
26964;DHT22;14521;48.148;-1.656;2023-04-08T05:13:33;19.40;76.80
26964;DHT22;14521;48.148;-1.656;2023-04-08T05:16:56;19.40;76.80
26964;DHT22;14521;48.148;-1.656;2023-04-08T05:20:18;19.40;76.70
26964;DHT22;14521;48.148;-1.656;2023-04-08T05:23:40;19.40;76.70
26964;DHT22;14521;48.148;-1.656;2023-04-08T05:27:03;19.40;76.70
26964;DHT22;14521;48.148;-1.656;2023-04-08T05:30:25;19.50;76.60
26964;DHT22;14521;48.148;-1.656;2023-04-08T05:33:48;19.40;76.50
26964;DHT22;14521;48.148;-1.656;2023-04-08T05:37:10;19.50;76.40
26964;DHT22;14521;48.148;-1.656;2023-04-08T05:40:32;19.50;76.50
26964;DHT22;14521;48.148;-1.656;2023-04-08T05:43:54;19.50;76.40
26964;DHT22;14521;48.148;-1.656;2023-04-08T05:47:17;19.60;76.60
26964;DHT22;14521;48.148;-1.656;2023-04-08T05:50:39;19.50;76.50
26964;DHT22;14521;48.148;-1.656;2023-04-08T05:54:01;19.60;76.50
26964;DHT22;14521;48.148;-1.656;2023-04-08T05:57:24;19.50;76.40
26964;DHT22;14521;48.148;-1.656;2023-04-08T06:00:46;19.50;76.40
26964;DHT22;14521;48.148;-1.656;2023-04-08T06:04:08;19.50;76.40
26964;DHT22;14521;48.148;-1.656;2023-04-08T06:07:31;19.50;76.30
26964;DHT22;14521;48.148;-1.656;2023-04-08T06:10:54;19.50;76.40
26964;DHT22;14521;48.148;-1.656;2023-04-08T06:14:17;19.50;76.30
26964;DHT22;14521;48.148;-1.656;2023-04-08T06:17:39;19.50;76.40
26964;DHT22;14521;48.148;-1.656;2023-04-08T06:21:01;19.50;76.50
26964;DHT22;14521;48.148;-1.656;2023-04-08T06:24:25;19.50;76.60
26964;DHT22;14521;48.148;-1.656;2023-04-08T06:27:48;19.40;76.70
26964;DHT22;14521;48.148;-1.656;2023-04-08T06:31:10;19.50;76.80
26964;DHT22;14521;48.148;-1.656;2023-04-08T06:34:33;19.40;76.70
26964;DHT22;14521;48.148;-1.656;2023-04-08T06:37:55;19.50;76.60
26964;DHT22;14521;48.148;-1.656;2023-04-08T06:41:17;19.50;76.60
26964;DHT22;14521;48.148;-1.656;2023-04-08T06:44:39;19.40;76.50
26964;DHT22;14521;48.148;-1.656;2023-04-08T06:48:01;19.40;77.30
26964;DHT22;14521;48.148;-1.656;2023-04-08T06:51:24;19.50;76.30
26964;DHT22;14521;48.148;-1.656;2023-04-08T06:54:46;19.60;76.40
26964;DHT22;14521;48.148;-1.656;2023-04-08T06:58:09;19.70;76.00
26964;DHT22;14521;48.148;-1.656;2023-04-08T07:01:31;19.80;75.60
26964;DHT22;14521;48.148;-1.656;2023-04-08T07:04:54;19.70;75.80
26964;DHT22;14521;48.148;-1.656;2023-04-08T07:08:16;19.70;75.80
26964;DHT22;14521;48.148;-1.656;2023-04-08T07:11:38;19.80;75.70
26964;DHT22;14521;48.148;-1.656;2023-04-08T07:15:00;19.80;75.60
26964;DHT22;14521;48.148;-1.656;2023-04-08T07:18:23;19.80;75.50
26964;DHT22;14521;48.148;-1.656;2023-04-08T07:21:45;19.90;76.00
26964;DHT22;14521;48.148;-1.656;2023-04-08T07:25:08;20.10;77.30
26964;DHT22;14521;48.148;-1.656;2023-04-08T07:28:31;20.30;76.20
26964;DHT22;14521;48.148;-1.656;2023-04-08T07:31:53;20.40;77.40
26964;DHT22;14521;48.148;-1.656;2023-04-08T07:35:15;20.40;77.40
26964;DHT22;14521;48.148;-1.656;2023-04-08T07:38:45;20.50;76.70
26964;DHT22;14521;48.148;-1.656;2023-04-08T07:42:07;20.50;76.80
26964;DHT22;14521;48.148;-1.656;2023-04-08T07:45:29;20.60;78.30
26964;DHT22;14521;48.148;-1.656;2023-04-08T07:48:52;20.70;79.00
26964;DHT22;14521;48.148;-1.656;2023-04-08T07:52:14;20.70;77.00
26964;DHT22;14521;48.148;-1.656;2023-04-08T07:55:36;20.70;80.30
26964;DHT22;14521;48.148;-1.656;2023-04-08T07:59:01;20.70;80.10
26964;DHT22;14521;48.148;-1.656;2023-04-08T08:02:23;20.70;80.80
26964;DHT22;14521;48.148;-1.656;2023-04-08T08:05:46;20.70;79.70
26964;DHT22;14521;48.148;-1.656;2023-04-08T08:09:08;20.80;79.10
26964;DHT22;14521;48.148;-1.656;2023-04-08T08:12:30;20.80;78.50
26964;DHT22;14521;48.148;-1.656;2023-04-08T08:15:53;20.70;71.70
26964;DHT22;14521;48.148;-1.656;2023-04-08T08:19:15;19.80;70.50
26964;DHT22;14521;48.148;-1.656;2023-04-08T08:22:37;19.30;70.80
26964;DHT22;14521;48.148;-1.656;2023-04-08T08:26:15;19.40;76.90
26964;DHT22;14521;48.148;-1.656;2023-04-08T08:29:37;19.60;77.70
26964;DHT22;14521;48.148;-1.656;2023-04-08T08:33:00;19.80;78.00
26964;DHT22;14521;48.148;-1.656;2023-04-08T08:36:22;19.90;78.00
26964;DHT22;14521;48.148;-1.656;2023-04-08T08:39:44;20.00;77.50
26964;DHT22;14521;48.148;-1.656;2023-04-08T08:43:08;20.00;77.30
26964;DHT22;14521;48.148;-1.656;2023-04-08T08:46:31;19.90;73.60
26964;DHT22;14521;48.148;-1.656;2023-04-08T08:49:53;19.60;71.10
26964;DHT22;14521;48.148;-1.656;2023-04-08T08:53:16;19.40;71.90
26964;DHT22;14521;48.148;-1.656;2023-04-08T08:56:38;19.30;71.70
26964;DHT22;14521;48.148;-1.656;2023-04-08T09:00:00;19.10;72.40
26964;DHT22;14521;48.148;-1.656;2023-04-08T09:03:26;18.90;72.10
26964;DHT22;14521;48.148;-1.656;2023-04-08T09:07:08;18.70;72.10
26964;DHT22;14521;48.148;-1.656;2023-04-08T09:10:31;18.60;72.40
26964;DHT22;14521;48.148;-1.656;2023-04-08T09:13:55;18.60;72.70
26964;DHT22;14521;48.148;-1.656;2023-04-08T09:17:31;18.50;72.70
26964;DHT22;14521;48.148;-1.656;2023-04-08T09:20:55;18.40;73.00
26964;DHT22;14521;48.148;-1.656;2023-04-08T09:24:28;18.40;73.00
26964;DHT22;14521;48.148;-1.656;2023-04-08T09:27:51;18.30;73.00
26964;DHT22;14521;48.148;-1.656;2023-04-08T09:31:28;18.40;73.10
26964;DHT22;14521;48.148;-1.656;2023-04-08T09:34:50;18.40;73.30
26964;DHT22;14521;48.148;-1.656;2023-04-08T09:38:13;18.40;73.10
26964;DHT22;14521;48.148;-1.656;2023-04-08T09:41:36;18.40;72.70
26964;DHT22;14521;48.148;-1.656;2023-04-08T09:45:00;18.40;72.70
26964;DHT22;14521;48.148;-1.656;2023-04-08T09:48:27;18.40;72.80
26964;DHT22;14521;48.148;-1.656;2023-04-08T09:52:07;18.40;72.80
26964;DHT22;14521;48.148;-1.656;2023-04-08T09:55:35;18.40;73.60
26964;DHT22;14521;48.148;-1.656;2023-04-08T09:59:00;18.50;72.70
26964;DHT22;14521;48.148;-1.656;2023-04-08T10:02:29;18.60;72.40
26964;DHT22;14521;48.148;-1.656;2023-04-08T10:05:54;18.60;72.20
26964;DHT22;14521;48.148;-1.656;2023-04-08T10:09:21;18.70;71.90
26964;DHT22;14521;48.148;-1.656;2023-04-08T10:12:44;18.60;71.20
26964;DHT22;14521;48.148;-1.656;2023-04-08T10:19:41;18.60;70.60
26964;DHT22;14521;48.148;-1.656;2023-04-08T10:23:08;18.60;71.00
26964;DHT22;14521;48.148;-1.656;2023-04-08T10:29:58;18.70;69.80
26964;DHT22;14521;48.148;-1.656;2023-04-08T10:33:32;18.70;70.20
26964;DHT22;14521;48.148;-1.656;2023-04-08T10:37:01;18.70;69.90
26964;DHT22;14521;48.148;-1.656;2023-04-08T10:40:24;18.80;69.70
26964;DHT22;14521;48.148;-1.656;2023-04-08T10:43:47;18.80;69.50
26964;DHT22;14521;48.148;-1.656;2023-04-08T10:47:10;18.80;68.50
26964;DHT22;14521;48.148;-1.656;2023-04-08T10:50:32;18.50;68.50
26964;DHT22;14521;48.148;-1.656;2023-04-08T10:53:54;18.40;68.60
26964;DHT22;14521;48.148;-1.656;2023-04-08T10:57:23;18.50;67.40
26964;DHT22;14521;48.148;-1.656;2023-04-08T11:00:46;18.40;67.20
26964;DHT22;14521;48.148;-1.656;2023-04-08T11:04:16;18.40;65.10
26964;DHT22;14521;48.148;-1.656;2023-04-08T11:07:41;18.50;64.70
26964;DHT22;14521;48.148;-1.656;2023-04-08T11:11:05;18.70;64.70
26964;DHT22;14521;48.148;-1.656;2023-04-08T11:14:31;18.80;62.70
26964;DHT22;14521;48.148;-1.656;2023-04-08T11:17:54;18.90;63.60
26964;DHT22;14521;48.148;-1.656;2023-04-08T11:21:17;19.00;63.80
26964;DHT22;14521;48.148;-1.656;2023-04-08T11:24:39;19.00;64.80
26964;DHT22;14521;48.148;-1.656;2023-04-08T11:28:02;19.10;65.10
26964;DHT22;14521;48.148;-1.656;2023-04-08T11:31:25;19.10;63.70
26964;DHT22;14521;48.148;-1.656;2023-04-08T11:34:48;19.00;64.30
26964;DHT22;14521;48.148;-1.656;2023-04-08T11:38:11;19.10;65.10
26964;DHT22;14521;48.148;-1.656;2023-04-08T11:41:37;19.10;64.80
26964;DHT22;14521;48.148;-1.656;2023-04-08T11:45:13;19.10;64.70
26964;DHT22;14521;48.148;-1.656;2023-04-08T11:48:35;19.00;64.20
26964;DHT22;14521;48.148;-1.656;2023-04-08T11:51:59;18.90;64.50
26964;DHT22;14521;48.148;-1.656;2023-04-08T11:58:49;18.70;64.40
26964;DHT22;14521;48.148;-1.656;2023-04-08T12:02:11;18.70;64.80
26964;DHT22;14521;48.148;-1.656;2023-04-08T12:05:34;18.60;64.90
26964;DHT22;14521;48.148;-1.656;2023-04-08T12:08:58;18.80;65.00
26964;DHT22;14521;48.148;-1.656;2023-04-08T12:12:20;18.90;64.90
26964;DHT22;14521;48.148;-1.656;2023-04-08T12:15:43;18.90;65.60
26964;DHT22;14521;48.148;-1.656;2023-04-08T12:19:06;18.90;63.80
26964;DHT22;14521;48.148;-1.656;2023-04-08T12:22:28;18.90;63.40
26964;DHT22;14521;48.148;-1.656;2023-04-08T12:25:50;18.80;61.70
26964;DHT22;14521;48.148;-1.656;2023-04-08T12:29:15;18.80;63.50
26964;DHT22;14521;48.148;-1.656;2023-04-08T12:32:38;18.70;64.70
26964;DHT22;14521;48.148;-1.656;2023-04-08T12:36:00;18.70;64.20
26964;DHT22;14521;48.148;-1.656;2023-04-08T12:39:22;18.40;64.20
26964;DHT22;14521;48.148;-1.656;2023-04-08T12:42:45;18.30;64.80
26964;DHT22;14521;48.148;-1.656;2023-04-08T12:46:07;18.30;65.40
26964;DHT22;14521;48.148;-1.656;2023-04-08T12:49:29;18.40;65.00
26964;DHT22;14521;48.148;-1.656;2023-04-08T12:53:09;18.60;65.50
26964;DHT22;14521;48.148;-1.656;2023-04-08T12:56:32;18.60;65.00
26964;DHT22;14521;48.148;-1.656;2023-04-08T12:59:54;18.50;65.20
26964;DHT22;14521;48.148;-1.656;2023-04-08T13:03:17;18.50;65.30
26964;DHT22;14521;48.148;-1.656;2023-04-08T13:06:39;18.50;65.60
26964;DHT22;14521;48.148;-1.656;2023-04-08T13:10:02;18.60;66.00
26964;DHT22;14521;48.148;-1.656;2023-04-08T13:13:25;18.60;65.60
26964;DHT22;14521;48.148;-1.656;2023-04-08T13:16:47;18.60;65.40
26964;DHT22;14521;48.148;-1.656;2023-04-08T13:20:09;18.70;65.50
26964;DHT22;14521;48.148;-1.656;2023-04-08T13:23:33;18.70;64.90
26964;DHT22;14521;48.148;-1.656;2023-04-08T13:26:55;18.80;64.30
26964;DHT22;14521;48.148;-1.656;2023-04-08T13:30:18;18.70;65.20
26964;DHT22;14521;48.148;-1.656;2023-04-08T13:33:40;18.80;63.90
26964;DHT22;14521;48.148;-1.656;2023-04-08T13:37:03;18.80;64.30
26964;DHT22;14521;48.148;-1.656;2023-04-08T13:40:26;18.80;64.00
26964;DHT22;14521;48.148;-1.656;2023-04-08T13:43:48;18.80;63.40
26964;DHT22;14521;48.148;-1.656;2023-04-08T13:47:11;18.80;62.40
26964;DHT22;14521;48.148;-1.656;2023-04-08T13:50:34;18.70;62.80
26964;DHT22;14521;48.148;-1.656;2023-04-08T13:53:56;18.70;62.20
26964;DHT22;14521;48.148;-1.656;2023-04-08T13:57:18;18.70;61.90
26964;DHT22;14521;48.148;-1.656;2023-04-08T14:00:41;18.70;61.90
26964;DHT22;14521;48.148;-1.656;2023-04-08T14:04:03;18.70;62.50
26964;DHT22;14521;48.148;-1.656;2023-04-08T14:07:25;18.60;62.80
26964;DHT22;14521;48.148;-1.656;2023-04-08T14:10:47;18.50;63.20
26964;DHT22;14521;48.148;-1.656;2023-04-08T14:14:10;18.40;63.70
26964;DHT22;14521;48.148;-1.656;2023-04-08T14:17:32;18.50;63.90
26964;DHT22;14521;48.148;-1.656;2023-04-08T14:20:56;18.40;64.00
26964;DHT22;14521;48.148;-1.656;2023-04-08T14:24:18;18.40;63.40
26964;DHT22;14521;48.148;-1.656;2023-04-08T14:27:41;18.40;62.20
26964;DHT22;14521;48.148;-1.656;2023-04-08T14:31:18;18.40;63.50
26964;DHT22;14521;48.148;-1.656;2023-04-08T14:34:41;18.50;64.20
26964;DHT22;14521;48.148;-1.656;2023-04-08T14:38:03;18.50;64.50
26964;DHT22;14521;48.148;-1.656;2023-04-08T14:41:25;18.40;64.30
26964;DHT22;14521;48.148;-1.656;2023-04-08T14:44:48;18.40;63.70
26964;DHT22;14521;48.148;-1.656;2023-04-08T14:48:10;18.40;63.50
26964;DHT22;14521;48.148;-1.656;2023-04-08T14:51:32;18.40;64.40
26964;DHT22;14521;48.148;-1.656;2023-04-08T14:54:55;18.40;64.80
26964;DHT22;14521;48.148;-1.656;2023-04-08T14:58:17;18.40;63.90
26964;DHT22;14521;48.148;-1.656;2023-04-08T15:01:40;18.30;64.10
26964;DHT22;14521;48.148;-1.656;2023-04-08T15:05:03;18.40;64.30
26964;DHT22;14521;48.148;-1.656;2023-04-08T15:08:26;18.40;63.90
26964;DHT22;14521;48.148;-1.656;2023-04-08T15:11:48;18.40;63.90
26964;DHT22;14521;48.148;-1.656;2023-04-08T15:15:10;18.40;63.00
26964;DHT22;14521;48.148;-1.656;2023-04-08T15:18:32;18.30;63.50
26964;DHT22;14521;48.148;-1.656;2023-04-08T15:21:55;18.30;64.10
26964;DHT22;14521;48.148;-1.656;2023-04-08T15:25:17;18.30;62.80
26964;DHT22;14521;48.148;-1.656;2023-04-08T15:28:39;18.20;61.90
26964;DHT22;14521;48.148;-1.656;2023-04-08T15:32:02;18.20;62.50
26964;DHT22;14521;48.148;-1.656;2023-04-08T15:35:24;18.20;63.20
26964;DHT22;14521;48.148;-1.656;2023-04-08T15:38:48;18.20;63.10
26964;DHT22;14521;48.148;-1.656;2023-04-08T15:42:11;18.20;63.30
26964;DHT22;14521;48.148;-1.656;2023-04-08T15:45:33;18.20;63.00
26964;DHT22;14521;48.148;-1.656;2023-04-08T15:48:55;18.20;63.40
26964;DHT22;14521;48.148;-1.656;2023-04-08T15:52:17;18.20;63.10
26964;DHT22;14521;48.148;-1.656;2023-04-08T15:55:40;18.10;62.90
26964;DHT22;14521;48.148;-1.656;2023-04-08T15:59:03;18.10;63.20
26964;DHT22;14521;48.148;-1.656;2023-04-08T16:02:25;18.10;63.40
26964;DHT22;14521;48.148;-1.656;2023-04-08T16:05:47;18.10;63.30
26964;DHT22;14521;48.148;-1.656;2023-04-08T16:09:10;18.20;64.50
26964;DHT22;14521;48.148;-1.656;2023-04-08T16:12:33;18.30;64.80
26964;DHT22;14521;48.148;-1.656;2023-04-08T16:15:56;18.40;64.20
26964;DHT22;14521;48.148;-1.656;2023-04-08T16:19:19;18.50;63.20
26964;DHT22;14521;48.148;-1.656;2023-04-08T16:22:43;18.50;63.10
26964;DHT22;14521;48.148;-1.656;2023-04-08T16:26:05;18.40;63.50
26964;DHT22;14521;48.148;-1.656;2023-04-08T16:29:29;18.60;63.10
26964;DHT22;14521;48.148;-1.656;2023-04-08T16:32:52;18.60;63.30
26964;DHT22;14521;48.148;-1.656;2023-04-08T16:36:15;18.60;63.40
26964;DHT22;14521;48.148;-1.656;2023-04-08T16:39:37;18.70;65.80
26964;DHT22;14521;48.148;-1.656;2023-04-08T16:43:00;18.90;67.70
26964;DHT22;14521;48.148;-1.656;2023-04-08T16:46:22;19.00;69.00
26964;DHT22;14521;48.148;-1.656;2023-04-08T16:49:45;19.10;68.60
26964;DHT22;14521;48.148;-1.656;2023-04-08T16:53:07;19.20;68.80
26964;DHT22;14521;48.148;-1.656;2023-04-08T16:56:30;19.20;68.90
26964;DHT22;14521;48.148;-1.656;2023-04-08T16:59:52;19.30;69.40
26964;DHT22;14521;48.148;-1.656;2023-04-08T17:03:15;19.40;70.30
26964;DHT22;14521;48.148;-1.656;2023-04-08T17:06:39;19.30;65.20
26964;DHT22;14521;48.148;-1.656;2023-04-08T17:10:02;19.10;65.30
26964;DHT22;14521;48.148;-1.656;2023-04-08T17:13:28;18.90;65.60
26964;DHT22;14521;48.148;-1.656;2023-04-08T17:16:50;18.80;65.70
26964;DHT22;14521;48.148;-1.656;2023-04-08T17:20:12;18.80;65.60
26964;DHT22;14521;48.148;-1.656;2023-04-08T17:23:35;18.70;65.90
26964;DHT22;14521;48.148;-1.656;2023-04-08T17:26:57;18.70;66.00
26964;DHT22;14521;48.148;-1.656;2023-04-08T17:30:20;18.70;66.70
26964;DHT22;14521;48.148;-1.656;2023-04-08T17:33:42;18.90;68.10
26964;DHT22;14521;48.148;-1.656;2023-04-08T17:37:04;19.00;68.00
26964;DHT22;14521;48.148;-1.656;2023-04-08T17:40:26;19.20;68.00
26964;DHT22;14521;48.148;-1.656;2023-04-08T17:43:49;19.30;69.50
26964;DHT22;14521;48.148;-1.656;2023-04-08T17:47:12;19.40;69.60
26964;DHT22;14521;48.148;-1.656;2023-04-08T17:50:34;19.40;69.60
26964;DHT22;14521;48.148;-1.656;2023-04-08T17:53:57;19.50;69.20
26964;DHT22;14521;48.148;-1.656;2023-04-08T17:57:19;19.50;70.40
26964;DHT22;14521;48.148;-1.656;2023-04-08T18:00:42;19.50;71.00
26964;DHT22;14521;48.148;-1.656;2023-04-08T18:04:04;19.60;72.50
26964;DHT22;14521;48.148;-1.656;2023-04-08T18:07:29;19.70;74.30
26964;DHT22;14521;48.148;-1.656;2023-04-08T18:10:51;19.70;74.80
26964;DHT22;14521;48.148;-1.656;2023-04-08T18:14:14;19.80;76.10
26964;DHT22;14521;48.148;-1.656;2023-04-08T18:17:36;19.80;76.80
26964;DHT22;14521;48.148;-1.656;2023-04-08T18:20:58;19.80;77.70
26964;DHT22;14521;48.148;-1.656;2023-04-08T18:24:21;19.80;76.50
26964;DHT22;14521;48.148;-1.656;2023-04-08T18:27:43;19.90;76.40
26964;DHT22;14521;48.148;-1.656;2023-04-08T18:31:05;19.80;76.10
26964;DHT22;14521;48.148;-1.656;2023-04-08T18:34:28;19.90;76.20
26964;DHT22;14521;48.148;-1.656;2023-04-08T18:37:52;19.90;76.70
26964;DHT22;14521;48.148;-1.656;2023-04-08T18:41:15;19.90;75.70
26964;DHT22;14521;48.148;-1.656;2023-04-08T18:44:38;19.80;75.50
26964;DHT22;14521;48.148;-1.656;2023-04-08T18:48:01;19.90;76.60
26964;DHT22;14521;48.148;-1.656;2023-04-08T18:51:23;19.90;76.10
26964;DHT22;14521;48.148;-1.656;2023-04-08T18:54:45;19.90;76.50
26964;DHT22;14521;48.148;-1.656;2023-04-08T18:58:10;19.90;76.30
26964;DHT22;14521;48.148;-1.656;2023-04-08T19:01:32;20.00;76.20
26964;DHT22;14521;48.148;-1.656;2023-04-08T19:04:57;20.00;76.20
26964;DHT22;14521;48.148;-1.656;2023-04-08T19:08:19;20.10;75.50
26964;DHT22;14521;48.148;-1.656;2023-04-08T19:11:41;19.90;76.10
26964;DHT22;14521;48.148;-1.656;2023-04-08T19:15:04;20.00;75.20
26964;DHT22;14521;48.148;-1.656;2023-04-08T19:18:26;20.00;75.70
26964;DHT22;14521;48.148;-1.656;2023-04-08T19:21:49;20.00;75.70
26964;DHT22;14521;48.148;-1.656;2023-04-08T19:25:11;20.00;76.00
26964;DHT22;14521;48.148;-1.656;2023-04-08T19:28:33;19.90;75.20
26964;DHT22;14521;48.148;-1.656;2023-04-08T19:31:56;19.80;74.70
26964;DHT22;14521;48.148;-1.656;2023-04-08T19:35:20;19.80;75.50
26964;DHT22;14521;48.148;-1.656;2023-04-08T19:38:42;19.80;75.80
26964;DHT22;14521;48.148;-1.656;2023-04-08T19:42:05;19.70;75.10
26964;DHT22;14521;48.148;-1.656;2023-04-08T19:45:27;19.70;74.70
26964;DHT22;14521;48.148;-1.656;2023-04-08T19:48:49;19.60;75.60
26964;DHT22;14521;48.148;-1.656;2023-04-08T19:52:11;19.60;75.10
26964;DHT22;14521;48.148;-1.656;2023-04-08T19:55:34;19.60;75.30
26964;DHT22;14521;48.148;-1.656;2023-04-08T19:58:59;19.60;75.50
26964;DHT22;14521;48.148;-1.656;2023-04-08T20:02:22;19.50;74.80
26964;DHT22;14521;48.148;-1.656;2023-04-08T20:05:46;19.50;74.70
26964;DHT22;14521;48.148;-1.656;2023-04-08T20:09:08;19.50;74.40
26964;DHT22;14521;48.148;-1.656;2023-04-08T20:12:31;19.40;74.50
26964;DHT22;14521;48.148;-1.656;2023-04-08T20:15:53;19.40;74.50
26964;DHT22;14521;48.148;-1.656;2023-04-08T20:19:15;19.40;74.70
26964;DHT22;14521;48.148;-1.656;2023-04-08T20:22:37;19.40;75.00
26964;DHT22;14521;48.148;-1.656;2023-04-08T20:26:00;19.40;74.80
26964;DHT22;14521;48.148;-1.656;2023-04-08T20:29:23;19.40;74.80
26964;DHT22;14521;48.148;-1.656;2023-04-08T20:32:45;19.30;74.70
26964;DHT22;14521;48.148;-1.656;2023-04-08T20:36:07;19.40;74.90
26964;DHT22;14521;48.148;-1.656;2023-04-08T20:39:29;19.40;74.90
26964;DHT22;14521;48.148;-1.656;2023-04-08T20:42:52;19.40;74.70
26964;DHT22;14521;48.148;-1.656;2023-04-08T20:46:15;19.40;74.50
26964;DHT22;14521;48.148;-1.656;2023-04-08T20:49:37;19.30;74.70
26964;DHT22;14521;48.148;-1.656;2023-04-08T20:53:02;19.30;74.40
26964;DHT22;14521;48.148;-1.656;2023-04-08T20:56:24;19.30;74.40
26964;DHT22;14521;48.148;-1.656;2023-04-08T20:59:47;19.30;74.30
26964;DHT22;14521;48.148;-1.656;2023-04-08T21:03:09;19.30;74.20
26964;DHT22;14521;48.148;-1.656;2023-04-08T21:06:32;19.30;74.20
26964;DHT22;14521;48.148;-1.656;2023-04-08T21:09:54;19.30;74.40
26964;DHT22;14521;48.148;-1.656;2023-04-08T21:13:16;19.20;74.40
26964;DHT22;14521;48.148;-1.656;2023-04-08T21:16:38;19.20;74.20